Aviation Digital Data Service (ADDS)

Output produced by METARs form (1506 UTC 19 July 2019)
found at http://aviationweather.gov/metar/data/
 
METAR text: ETMN 191500Z 34007KT 9999 FEW035 SCT280 21/08 Q1014 BLU+FCST CANCEL
Conditions at: ETMN (NORDHOLZ (GER-NA, DE) observed 1500 UTC 19 July 2019
Temperature: 21.0°C (70°F)
Dewpoint: 8.0°C (46°F) [RH = 43%]
Pressure (altimeter): 29.94 inches Hg (1014.0 mb)
Winds: from the NNW (340 degrees) at 8 MPH (7 knots; 3.6 m/s)
Visibility: 6 or more miles (10+ km)
Ceiling: at least 12,000 feet AGL
Clouds: few clouds at 3500 feet AGL
scattered clouds at 28000 feet AGL
Weather: no significant weather observed at this time

METAR text: ETMN 191420Z 34007KT 9999 FEW035 SCT280 21/09 Q1014 BLU+BLU+
Conditions at: ETMN (NORDHOLZ (GER-NA, DE) observed 1420 UTC 19 July 2019
Temperature: 21.0°C (70°F)
Dewpoint: 9.0°C (48°F) [RH = 46%]
Pressure (altimeter): 29.94 inches Hg (1014.0 mb)
Winds: from the NNW (340 degrees) at 8 MPH (7 knots; 3.6 m/s)
Visibility: 6 or more miles (10+ km)
Ceiling: at least 12,000 feet AGL
Clouds: few clouds at 3500 feet AGL
scattered clouds at 28000 feet AGL
Weather: no significant weather observed at this time

Forecast for: ETMN (NORDHOLZ (GER-NA, DE)
Text: TAF ETMN 191000Z 1911/1920 31010KT 9999 NSW SCT020 SCT250
Forecast period: 1100 to 1400 UTC 19 July 2019
Forecast type: FROM: standard forecast or significant change
Winds: from the NW (310 degrees) at 12 MPH (10 knots; 5.1 m/s)
Visibility: 6 or more miles 10+ km)
Ceiling: at least 12,000 feet AGL
Clouds: scattered clouds at 2000 feet AGL
scattered clouds at 25000 feet AGL
Weather: NSW  (no significant weather)
Text: BECMG 1914/1916 03010KT 9999 NSW SCT020 BKN250
Forecast period: 1400 to 2000 UTC 19 July 2019
Forecast type: BECOMING: Conditions expected to become as follows by 1600 UTC 19 July 2019
Winds: from the NNE (30 degrees) at 12 MPH (10 knots; 5.1 m/s)
Visibility: 6 or more miles 10+ km)
Ceiling: 25000 feet AGL
Clouds: scattered clouds at 2000 feet AGL
broken clouds at 25000 feet AGL
Weather: NSW  (no significant weather)